createdAt,value
2022-09-06T00:01:52.464Z,70.70
2022-09-06T00:06:50.772Z,70.90
2022-09-06T00:11:50.411Z,70.40
2022-09-06T00:16:48.744Z,71.10
2022-09-06T00:21:46.978Z,71.60
2022-09-06T00:26:45.274Z,71.60
2022-09-06T00:31:45.002Z,71.50
2022-09-06T00:36:43.307Z,70.90
2022-09-06T00:41:41.604Z,70.90
2022-09-06T00:46:43.296Z,70.50
2022-09-06T00:51:43.732Z,70.70
2022-09-06T00:56:45.170Z,71.10
2022-09-06T01:01:43.971Z,71.00
2022-09-06T01:06:52.016Z,71.30
2022-09-06T01:12:01.262Z,71.00
2022-09-06T01:17:07.187Z,71.00
2022-09-06T01:22:21.352Z,71.70
2022-09-06T01:27:47.314Z,70.90
2022-09-06T01:32:54.618Z,72.80
2022-09-06T01:37:53.081Z,71.80
2022-09-06T01:42:54.409Z,72.00
2022-09-06T01:48:04.090Z,71.40
2022-09-06T01:53:12.107Z,71.10
2022-09-06T01:58:33.300Z,72.00
2022-09-06T02:03:38.040Z,71.40
2022-09-06T02:08:40.480Z,71.60
2022-09-06T02:13:45.945Z,70.80
2022-09-06T02:18:48.860Z,71.50
2022-09-06T02:23:48.679Z,70.80
2022-09-06T02:28:48.622Z,71.80
2022-09-06T02:33:48.490Z,71.50
2022-09-06T02:38:47.736Z,71.20
2022-09-06T02:43:46.368Z,70.40
2022-09-06T02:48:46.774Z,71.40
2022-09-06T02:53:45.222Z,71.60
2022-09-06T02:58:43.743Z,71.10
2022-09-06T03:03:42.040Z,70.90
2022-09-06T03:08:41.667Z,69.20
2022-09-06T03:13:39.969Z,70.50
2022-09-06T03:18:38.224Z,69.10
2022-09-06T03:23:38.920Z,70.20
2022-09-06T03:28:38.550Z,69.90
2022-09-06T03:33:36.823Z,70.10
2022-09-06T03:38:35.146Z,70.30
2022-09-06T03:43:33.989Z,70.70
2022-09-06T03:48:33.653Z,70.60
2022-09-06T03:53:31.968Z,70.40
2022-09-06T03:58:32.090Z,69.70
2022-09-06T04:03:30.361Z,69.10
2022-09-06T04:08:30.530Z,69.20
2022-09-06T04:13:30.812Z,68.80
2022-09-06T04:18:29.308Z,70.30
2022-09-06T04:23:30.023Z,68.30
2022-09-06T04:28:29.102Z,69.50
2022-09-06T04:33:28.785Z,67.80
2022-09-06T04:38:28.405Z,68.30
2022-09-06T04:43:28.148Z,67.30
2022-09-06T04:48:26.624Z,68.20
2022-09-06T04:53:25.028Z,68.00
2022-09-06T04:58:23.408Z,68.00
2022-09-06T05:03:23.188Z,67.50
2022-09-06T05:08:21.605Z,68.60
2022-09-06T05:13:19.866Z,66.90
2022-09-06T05:18:18.144Z,67.70
2022-09-06T05:23:17.817Z,68.90
2022-09-06T05:28:16.295Z,68.30
2022-09-06T05:33:19.803Z,68.30
2022-09-06T05:38:19.448Z,68.20
2022-09-06T05:43:18.876Z,69.10
2022-09-06T05:48:19.160Z,69.20
2022-09-06T05:53:17.425Z,69.20
2022-09-06T05:58:17.149Z,67.00
2022-09-06T06:03:15.392Z,70.20
2022-09-06T06:08:13.635Z,69.10
2022-09-06T06:13:11.934Z,66.50
2022-09-06T06:18:12.067Z,67.60
2022-09-06T06:23:10.437Z,68.50
2022-09-06T06:28:08.780Z,68.20
2022-09-06T06:33:07.134Z,69.00
2022-09-06T06:38:07.032Z,68.10
2022-09-06T06:43:05.293Z,67.30
2022-09-06T06:48:03.889Z,69.20
2022-09-06T06:53:02.209Z,68.40
2022-09-06T06:58:02.660Z,68.90
2022-09-06T07:03:00.937Z,69.20
2022-09-06T07:07:59.725Z,68.70
2022-09-06T07:12:57.990Z,67.70
2022-09-06T07:17:58.279Z,69.20
2022-09-06T07:28:24.643Z,67.90
2022-09-06T07:33:24.787Z,68.50
2022-09-06T07:38:22.991Z,68.90
2022-09-06T07:43:21.407Z,69.10
2022-09-06T07:48:19.709Z,68.30
2022-09-06T07:53:26.334Z,69.00
2022-09-06T07:58:30.194Z,68.30
2022-09-06T08:03:28.843Z,68.90
2022-09-06T08:13:49.593Z,69.30
2022-09-06T08:18:52.073Z,69.30
2022-09-06T08:23:53.780Z,70.10
2022-09-06T08:28:55.869Z,69.20
2022-09-06T08:33:54.894Z,69.40
2022-09-06T08:38:54.742Z,69.40
2022-09-06T08:49:13.952Z,70.20
2022-09-06T08:54:22.605Z,70.30
2022-09-06T08:59:21.014Z,69.80
2022-09-06T09:04:23.670Z,70.10
2022-09-06T09:09:23.355Z,70.00
2022-09-06T09:14:26.096Z,69.80
2022-09-06T09:19:24.317Z,69.90
2022-09-06T09:24:24.964Z,69.70
2022-09-06T09:29:28.066Z,69.40
2022-09-06T09:34:33.702Z,69.60
2022-09-06T09:39:39.154Z,69.70
2022-09-06T09:44:43.025Z,70.00
2022-09-06T09:49:41.212Z,69.50
2022-09-06T09:54:43.610Z,70.00
2022-09-06T09:59:45.644Z,70.40
2022-09-06T10:04:47.781Z,70.00
2022-09-06T10:09:49.007Z,70.40
2022-09-06T10:14:49.659Z,70.30
2022-09-06T10:19:48.818Z,69.70
2022-09-06T10:25:11.711Z,69.80
2022-09-06T10:30:11.337Z,69.60
2022-09-06T10:35:21.059Z,69.60
2022-09-06T10:40:31.571Z,69.10
2022-09-06T10:45:44.065Z,69.50
2022-09-06T10:50:48.960Z,68.80
2022-09-06T10:55:53.729Z,68.80
2022-09-06T11:00:54.167Z,68.30
2022-09-06T11:05:54.454Z,68.00
2022-09-06T11:10:56.493Z,68.00
2022-09-06T11:15:58.845Z,68.30
2022-09-06T11:21:18.806Z,67.80
2022-09-06T11:26:34.454Z,68.30
2022-09-06T11:36:56.065Z,68.20
2022-09-06T11:41:55.568Z,67.30
2022-09-06T11:47:07.535Z,67.20
2022-09-06T11:52:39.519Z,67.10
2022-09-06T11:57:40.456Z,67.50
2022-09-06T12:02:40.859Z,67.10
2022-09-06T12:07:40.727Z,66.90
2022-09-06T12:12:48.376Z,66.80
2022-09-06T12:17:49.889Z,66.40
2022-09-06T12:22:57.297Z,66.00
2022-09-06T12:27:58.837Z,66.00
2022-09-06T12:32:57.419Z,67.00
2022-09-06T12:37:57.472Z,66.70
2022-09-06T12:42:57.792Z,66.80
2022-09-06T12:48:08.558Z,66.80
2022-09-06T12:53:23.421Z,66.30
2022-09-06T12:58:29.377Z,66.80
2022-09-06T13:03:32.338Z,66.80
2022-09-06T13:08:35.619Z,67.00
2022-09-06T13:13:35.253Z,67.70
2022-09-06T13:18:35.524Z,67.90
2022-09-06T13:23:42.760Z,68.00
2022-09-06T13:28:42.591Z,68.20
2022-09-06T13:33:42.459Z,68.50
2022-09-06T13:38:42.300Z,68.90
2022-09-06T13:43:46.243Z,70.00
2022-09-06T13:48:45.118Z,72.20
2022-09-06T13:53:43.701Z,71.40
2022-09-06T13:58:42.060Z,70.90
2022-09-06T14:03:43.127Z,70.90
2022-09-06T14:09:05.985Z,71.50
2022-09-06T14:14:00.022Z,71.40
2022-09-06T14:18:59.850Z,71.30
2022-09-06T14:24:03.354Z,73.00
2022-09-06T14:29:02.775Z,71.70
2022-09-06T14:34:04.101Z,72.50
2022-09-06T14:39:04.964Z,72.90
2022-09-06T14:44:03.998Z,72.30
2022-09-06T14:49:06.111Z,72.60
2022-09-06T14:54:06.822Z,72.80
2022-09-06T14:59:05.324Z,72.40
2022-09-06T15:04:06.270Z,72.60
2022-09-06T15:09:05.392Z,72.70
2022-09-06T15:14:04.630Z,72.70
2022-09-06T15:19:04.657Z,72.90
2022-09-06T15:24:03.319Z,73.10
2022-09-06T15:29:01.994Z,73.80
2022-09-06T15:34:01.541Z,73.80
2022-09-06T15:39:03.267Z,73.60
2022-09-06T15:44:03.580Z,73.80
2022-09-06T15:49:04.059Z,74.10
2022-09-06T15:54:04.357Z,74.10
2022-09-06T15:59:02.657Z,74.00
2022-09-06T16:04:03.757Z,74.20
2022-09-06T16:09:06.039Z,74.10
2022-09-06T16:14:05.034Z,74.50
2022-09-06T16:19:03.533Z,74.30
2022-09-06T16:24:05.583Z,74.30
2022-09-06T16:29:06.022Z,75.10
2022-09-06T16:34:04.452Z,76.30
2022-09-06T16:39:04.828Z,75.50
2022-09-06T16:44:03.688Z,75.70
2022-09-06T16:49:04.348Z,75.80
2022-09-06T16:54:04.523Z,75.60
2022-09-06T16:59:05.636Z,75.60
2022-09-06T17:04:05.546Z,75.50
2022-09-06T17:09:05.815Z,75.70
2022-09-06T17:14:04.577Z,75.40
2022-09-06T17:19:03.179Z,75.40
2022-09-06T17:24:05.425Z,75.60
2022-09-06T17:29:05.403Z,75.40
2022-09-06T17:34:03.867Z,75.50
2022-09-06T17:39:03.698Z,75.60
2022-09-06T17:44:02.180Z,75.50
2022-09-06T17:49:01.919Z,75.50
2022-09-06T17:54:00.298Z,75.80
2022-09-06T17:59:00.440Z,75.80
2022-09-06T18:03:59.326Z,75.70
2022-09-06T18:09:00.996Z,76.20
2022-09-06T18:14:01.136Z,76.20
2022-09-06T18:19:01.102Z,76.20
2022-09-06T18:24:00.756Z,76.10
2022-09-06T18:28:59.169Z,76.30
2022-09-06T18:33:58.953Z,76.40
2022-09-06T18:38:57.469Z,76.40
2022-09-06T18:44:00.482Z,76.50
2022-09-06T18:48:58.932Z,77.00
2022-09-06T18:53:59.272Z,77.00
2022-09-06T18:59:00.960Z,77.00
2022-09-06T19:03:59.866Z,77.30
2022-09-06T19:09:00.125Z,77.40
2022-09-06T19:14:00.413Z,77.40
2022-09-06T19:19:03.381Z,77.70
2022-09-06T19:24:03.942Z,77.60
2022-09-06T19:29:06.435Z,77.80
2022-09-06T19:34:05.293Z,78.00
2022-09-06T19:39:07.347Z,77.80
2022-09-06T19:44:08.989Z,78.10
2022-09-06T19:49:08.910Z,78.10
2022-09-06T19:54:07.538Z,78.00
2022-09-06T19:59:10.235Z,78.30
2022-09-06T20:04:11.693Z,78.10
2022-09-06T20:09:11.185Z,78.30
2022-09-06T20:14:11.702Z,78.20
2022-09-06T20:19:10.085Z,78.30
2022-09-06T20:24:08.574Z,78.60
2022-09-06T20:29:07.220Z,78.30
2022-09-06T20:34:07.807Z,78.50
2022-09-06T20:39:06.154Z,78.60
2022-09-06T20:44:04.802Z,78.60
2022-09-06T20:49:04.725Z,79.00
2022-09-06T20:54:06.244Z,79.00
2022-09-06T20:59:05.860Z,79.20
2022-09-06T21:04:05.867Z,79.40
2022-09-06T21:09:06.730Z,79.20
2022-09-06T21:14:05.829Z,79.50
2022-09-06T21:19:06.828Z,79.80
2022-09-06T21:24:08.099Z,79.80
2022-09-06T21:29:06.577Z,79.90
2022-09-06T21:34:07.042Z,79.80
2022-09-06T21:39:09.505Z,80.00
2022-09-06T21:44:08.978Z,79.80
2022-09-06T21:49:09.613Z,81.20
2022-09-06T21:54:09.390Z,80.50
2022-09-06T21:59:07.894Z,80.80
2022-09-06T22:04:06.873Z,81.20
2022-09-06T22:09:11.519Z,81.00
2022-09-06T22:14:11.830Z,81.10
2022-09-06T22:19:10.775Z,81.50
2022-09-06T22:24:11.774Z,82.00
2022-09-06T22:29:12.267Z,81.40
2022-09-06T22:34:11.016Z,81.50
2022-09-06T22:39:10.960Z,81.20
2022-09-06T22:44:09.328Z,81.70
2022-09-06T22:49:08.271Z,82.00
2022-09-06T22:54:06.944Z,81.90
2022-09-06T22:59:07.055Z,81.40
2022-09-06T23:04:05.467Z,81.90
2022-09-06T23:09:04.963Z,82.00
2022-09-06T23:14:04.909Z,82.50
2022-09-06T23:19:04.697Z,82.30
2022-09-06T23:24:03.396Z,82.40
2022-09-06T23:29:01.787Z,82.60
2022-09-06T23:34:01.756Z,82.90
2022-09-06T23:39:02.358Z,82.90
2022-09-06T23:44:00.877Z,83.00
2022-09-06T23:48:59.210Z,83.00
2022-09-06T23:53:58.350Z,82.90
2022-09-06T23:58:58.055Z,83.10
